sensor_id;sensor_type;location;lat;lon;timestamp;pressure;altitude;pressure_sealevel;temperature;humidity
16806;BME280;8520;50.102;20.010;2023-02-15T00:02:05;99934.88;;;8.49;67.17
16806;BME280;8520;50.102;20.010;2023-02-15T00:04:33;99939.59;;;8.48;66.37
16806;BME280;8520;50.102;20.010;2023-02-15T00:07:17;99932.03;;;8.33;66.50
16806;BME280;8520;50.102;20.010;2023-02-15T00:09:45;99936.63;;;8.39;66.58
16806;BME280;8520;50.102;20.010;2023-02-15T00:12:15;99928.81;;;8.11;67.21
16806;BME280;8520;50.102;20.010;2023-02-15T00:14:43;99933.47;;;8.41;66.57
16806;BME280;8520;50.102;20.010;2023-02-15T00:17:11;99938.13;;;8.44;66.45
16806;BME280;8520;50.102;20.010;2023-02-15T00:19:39;99940.47;;;8.18;67.12
16806;BME280;8520;50.102;20.010;2023-02-15T00:22:08;99939.28;;;7.65;68.48
16806;BME280;8520;50.102;20.010;2023-02-15T00:24:37;99938.50;;;7.65;68.52
16806;BME280;8520;50.102;20.010;2023-02-15T00:27:05;99932.28;;;7.30;69.94
16806;BME280;8520;50.102;20.010;2023-02-15T00:29:36;99925.63;;;7.31;70.50
16806;BME280;8520;50.102;20.010;2023-02-15T00:32:04;99920.91;;;7.62;69.76
16806;BME280;8520;50.102;20.010;2023-02-15T00:34:32;99925.22;;;7.63;69.30
16806;BME280;8520;50.102;20.010;2023-02-15T00:37:00;99925.97;;;7.64;69.47
16806;BME280;8520;50.102;20.010;2023-02-15T00:39:29;99919.78;;;7.60;69.85
16806;BME280;8520;50.102;20.010;2023-02-15T00:41:59;99916.22;;;7.90;69.13
16806;BME280;8520;50.102;20.010;2023-02-15T00:44:27;99918.69;;;8.08;68.79
16806;BME280;8520;50.102;20.010;2023-02-15T00:46:55;99912.91;;;8.25;68.38
16806;BME280;8520;50.102;20.010;2023-02-15T00:49:23;99911.59;;;8.34;67.76
16806;BME280;8520;50.102;20.010;2023-02-15T00:51:53;99910.34;;;8.38;67.04
16806;BME280;8520;50.102;20.010;2023-02-15T00:54:21;99900.56;;;8.14;67.23
16806;BME280;8520;50.102;20.010;2023-02-15T00:56:49;99917.84;;;7.84;67.51
16806;BME280;8520;50.102;20.010;2023-02-15T00:59:18;99907.72;;;7.54;69.41
16806;BME280;8520;50.102;20.010;2023-02-15T01:01:47;99904.22;;;7.50;68.83
16806;BME280;8520;50.102;20.010;2023-02-15T01:04:15;99898.72;;;7.80;68.71
16806;BME280;8520;50.102;20.010;2023-02-15T01:06:43;99893.16;;;7.84;68.67
16806;BME280;8520;50.102;20.010;2023-02-15T01:09:11;99888.34;;;7.91;68.31
16806;BME280;8520;50.102;20.010;2023-02-15T01:11:40;99895.66;;;7.75;68.37
16806;BME280;8520;50.102;20.010;2023-02-15T01:14:08;99888.41;;;7.88;68.66
16806;BME280;8520;50.102;20.010;2023-02-15T01:16:39;99876.38;;;8.05;67.80
16806;BME280;8520;50.102;20.010;2023-02-15T01:19:07;99881.63;;;8.19;67.86
16806;BME280;8520;50.102;20.010;2023-02-15T01:21:35;99874.88;;;8.24;67.13
16806;BME280;8520;50.102;20.010;2023-02-15T01:24:03;99887.53;;;8.18;67.47
16806;BME280;8520;50.102;20.010;2023-02-15T01:26:31;99880.53;;;8.13;67.09
16806;BME280;8520;50.102;20.010;2023-02-15T01:28:59;99873.88;;;8.14;67.30
16806;BME280;8520;50.102;20.010;2023-02-15T01:31:28;99877.25;;;8.22;67.13
16806;BME280;8520;50.102;20.010;2023-02-15T01:33:57;99879.88;;;8.29;67.18
16806;BME280;8520;50.102;20.010;2023-02-15T01:36:26;99870.44;;;8.30;67.33
16806;BME280;8520;50.102;20.010;2023-02-15T01:38:54;99874.47;;;8.25;67.26
16806;BME280;8520;50.102;20.010;2023-02-15T01:41:22;99868.72;;;8.16;67.48
16806;BME280;8520;50.102;20.010;2023-02-15T01:43:55;99864.28;;;8.22;67.72
16806;BME280;8520;50.102;20.010;2023-02-15T01:46:28;99869.66;;;8.30;67.29
16806;BME280;8520;50.102;20.010;2023-02-15T01:49:03;99867.03;;;8.22;67.40
16806;BME280;8520;50.102;20.010;2023-02-15T01:51:37;99866.81;;;8.13;67.49
16806;BME280;8520;50.102;20.010;2023-02-15T01:54:13;99860.53;;;8.13;67.23
16806;BME280;8520;50.102;20.010;2023-02-15T01:56:43;99868.25;;;8.21;67.45
16806;BME280;8520;50.102;20.010;2023-02-15T01:59:14;99860.31;;;8.27;67.51
16806;BME280;8520;50.102;20.010;2023-02-15T02:01:44;99849.75;;;8.25;67.32
16806;BME280;8520;50.102;20.010;2023-02-15T02:04:17;99850.88;;;8.28;67.43
16806;BME280;8520;50.102;20.010;2023-02-15T02:06:48;99841.63;;;8.18;67.30
16806;BME280;8520;50.102;20.010;2023-02-15T02:09:18;99847.19;;;8.15;67.43
16806;BME280;8520;50.102;20.010;2023-02-15T02:11:47;99846.66;;;8.23;67.33
16806;BME280;8520;50.102;20.010;2023-02-15T02:14:15;99845.81;;;8.26;67.29
16806;BME280;8520;50.102;20.010;2023-02-15T02:16:51;99843.47;;;8.25;67.37
16806;BME280;8520;50.102;20.010;2023-02-15T02:19:51;99836.84;;;8.22;67.34
16806;BME280;8520;50.102;20.010;2023-02-15T02:22:49;99841.09;;;8.27;67.15
16806;BME280;8520;50.102;20.010;2023-02-15T02:25:47;99844.25;;;8.25;67.12
16806;BME280;8520;50.102;20.010;2023-02-15T02:28:35;99835.28;;;8.21;67.19
16806;BME280;8520;50.102;20.010;2023-02-15T02:31:43;99830.44;;;8.29;67.41
16806;BME280;8520;50.102;20.010;2023-02-15T02:34:16;99831.22;;;8.30;67.22
16806;BME280;8520;50.102;20.010;2023-02-15T02:36:52;99831.22;;;8.30;67.29
16806;BME280;8520;50.102;20.010;2023-02-15T02:39:30;99824.53;;;8.31;67.19
16806;BME280;8520;50.102;20.010;2023-02-15T02:42:06;99822.72;;;8.24;67.30
16806;BME280;8520;50.102;20.010;2023-02-15T02:44:41;99828.78;;;8.12;67.30
16806;BME280;8520;50.102;20.010;2023-02-15T02:47:17;99823.31;;;7.88;67.88
16806;BME280;8520;50.102;20.010;2023-02-15T02:49:52;99818.59;;;7.89;68.21
16806;BME280;8520;50.102;20.010;2023-02-15T02:52:38;99825.59;;;7.66;68.94
16806;BME280;8520;50.102;20.010;2023-02-15T02:55:10;99825.75;;;7.83;68.79
16806;BME280;8520;50.102;20.010;2023-02-15T02:57:43;99825.66;;;7.90;68.77
16806;BME280;8520;50.102;20.010;2023-02-15T03:00:14;99825.00;;;8.06;68.17
16806;BME280;8520;50.102;20.010;2023-02-15T03:02:45;99811.28;;;8.06;68.06
16806;BME280;8520;50.102;20.010;2023-02-15T03:05:21;99812.69;;;8.14;67.87
16806;BME280;8520;50.102;20.010;2023-02-15T03:07:53;99817.28;;;8.20;67.81
16806;BME280;8520;50.102;20.010;2023-02-15T03:10:25;99818.13;;;8.17;67.90
16806;BME280;8520;50.102;20.010;2023-02-15T03:12:54;99803.16;;;7.98;68.07
16806;BME280;8520;50.102;20.010;2023-02-15T03:15:25;99803.50;;;8.01;68.53
16806;BME280;8520;50.102;20.010;2023-02-15T03:18:16;99808.63;;;7.75;68.87
16806;BME280;8520;50.102;20.010;2023-02-15T03:20:47;99805.41;;;7.80;69.24
16806;BME280;8520;50.102;20.010;2023-02-15T03:23:19;99797.44;;;7.89;68.88
16806;BME280;8520;50.102;20.010;2023-02-15T03:25:52;99802.31;;;7.78;68.99
16806;BME280;8520;50.102;20.010;2023-02-15T03:28:28;99805.16;;;7.94;68.93
16806;BME280;8520;50.102;20.010;2023-02-15T03:31:01;99804.09;;;7.88;68.89
16806;BME280;8520;50.102;20.010;2023-02-15T03:33:31;99803.16;;;7.98;68.72
16806;BME280;8520;50.102;20.010;2023-02-15T03:36:04;99796.53;;;7.96;68.77
16806;BME280;8520;50.102;20.010;2023-02-15T03:38:40;99800.41;;;7.98;68.75
16806;BME280;8520;50.102;20.010;2023-02-15T03:41:12;99791.44;;;7.94;68.50
16806;BME280;8520;50.102;20.010;2023-02-15T03:43:45;99787.34;;;8.06;68.62
16806;BME280;8520;50.102;20.010;2023-02-15T03:46:21;99789.13;;;7.93;68.59
16806;BME280;8520;50.102;20.010;2023-02-15T03:48:53;99793.72;;;7.99;68.52
16806;BME280;8520;50.102;20.010;2023-02-15T03:51:28;99785.00;;;8.05;68.65
16806;BME280;8520;50.102;20.010;2023-02-15T03:54:06;99782.19;;;8.08;68.40
16806;BME280;8520;50.102;20.010;2023-02-15T03:56:36;99775.16;;;8.07;68.82
16806;BME280;8520;50.102;20.010;2023-02-15T03:59:05;99782.63;;;8.07;68.49
16806;BME280;8520;50.102;20.010;2023-02-15T04:02:02;99787.66;;;7.88;68.74
16806;BME280;8520;50.102;20.010;2023-02-15T04:04:36;99788.06;;;7.87;69.06
16806;BME280;8520;50.102;20.010;2023-02-15T04:07:08;99789.84;;;7.97;68.90
16806;BME280;8520;50.102;20.010;2023-02-15T04:09:37;99785.91;;;7.98;68.73
16806;BME280;8520;50.102;20.010;2023-02-15T04:12:22;99793.41;;;7.94;68.90
16806;BME280;8520;50.102;20.010;2023-02-15T04:14:50;99789.63;;;7.88;68.68
16806;BME280;8520;50.102;20.010;2023-02-15T04:17:37;99792.28;;;7.91;68.85
16806;BME280;8520;50.102;20.010;2023-02-15T04:20:06;99785.44;;;7.80;69.14
16806;BME280;8520;50.102;20.010;2023-02-15T04:22:55;99791.88;;;7.93;69.11
16806;BME280;8520;50.102;20.010;2023-02-15T04:25:40;99790.28;;;7.95;69.02
16806;BME280;8520;50.102;20.010;2023-02-15T04:28:09;99789.44;;;7.98;68.76
16806;BME280;8520;50.102;20.010;2023-02-15T04:30:37;99791.75;;;8.00;68.68
16806;BME280;8520;50.102;20.010;2023-02-15T04:33:05;99789.16;;;7.66;69.36
16806;BME280;8520;50.102;20.010;2023-02-15T04:35:33;99790.50;;;7.81;69.69
16806;BME280;8520;50.102;20.010;2023-02-15T04:38:03;99789.13;;;7.93;69.29
16806;BME280;8520;50.102;20.010;2023-02-15T04:40:31;99786.72;;;7.95;69.11
16806;BME280;8520;50.102;20.010;2023-02-15T04:42:59;99789.13;;;7.93;68.94
16806;BME280;8520;50.102;20.010;2023-02-15T04:45:27;99781.63;;;7.97;68.87
16806;BME280;8520;50.102;20.010;2023-02-15T04:47:57;99777.25;;;7.99;68.89
16806;BME280;8520;50.102;20.010;2023-02-15T04:50:29;99775.81;;;7.91;68.73
16806;BME280;8520;50.102;20.010;2023-02-15T04:52:57;99780.88;;;7.93;69.14
16806;BME280;8520;50.102;20.010;2023-02-15T04:55:27;99776.56;;;7.95;68.86
16806;BME280;8520;50.102;20.010;2023-02-15T04:57:55;99784.63;;;8.03;68.63
16806;BME280;8520;50.102;20.010;2023-02-15T05:00:23;99783.59;;;7.96;68.66
16806;BME280;8520;50.102;20.010;2023-02-15T05:02:51;99786.00;;;7.67;69.52
16806;BME280;8520;50.102;20.010;2023-02-15T05:05:19;99789.72;;;7.81;69.04
16806;BME280;8520;50.102;20.010;2023-02-15T05:07:47;99786.38;;;7.93;68.68
16806;BME280;8520;50.102;20.010;2023-02-15T05:10:16;99786.72;;;7.95;68.64
16806;BME280;8520;50.102;20.010;2023-02-15T05:12:45;99784.78;;;7.95;68.46
16806;BME280;8520;50.102;20.010;2023-02-15T05:15:13;99797.44;;;7.89;68.87
16806;BME280;8520;50.102;20.010;2023-02-15T05:17:42;99798.44;;;7.99;68.61
16806;BME280;8520;50.102;20.010;2023-02-15T05:20:10;99791.31;;;8.02;68.85
16806;BME280;8520;50.102;20.010;2023-02-15T05:22:38;99783.88;;;8.02;68.52
16806;BME280;8520;50.102;20.010;2023-02-15T05:25:08;99783.16;;;7.98;68.60
16806;BME280;8520;50.102;20.010;2023-02-15T05:27:55;99790.91;;;7.56;69.69
16806;BME280;8520;50.102;20.010;2023-02-15T05:30:37;99791.75;;;7.77;69.51
16806;BME280;8520;50.102;20.010;2023-02-15T05:33:07;99786.84;;;7.41;70.13
16806;BME280;8520;50.102;20.010;2023-02-15T05:35:35;99792.75;;;7.63;69.84
16806;BME280;8520;50.102;20.010;2023-02-15T05:38:03;99797.66;;;7.75;69.58
16806;BME280;8520;50.102;20.010;2023-02-15T05:40:31;99788.19;;;7.80;69.03
16806;BME280;8520;50.102;20.010;2023-02-15T05:43:01;99788.06;;;7.87;69.19
16806;BME280;8520;50.102;20.010;2023-02-15T05:45:29;99794.31;;;7.64;69.87
16806;BME280;8520;50.102;20.010;2023-02-15T05:47:57;99795.75;;;7.72;69.43
16806;BME280;8520;50.102;20.010;2023-02-15T05:50:26;99794.91;;;7.75;69.59
16806;BME280;8520;50.102;20.010;2023-02-15T05:52:54;99793.66;;;7.80;69.52
16806;BME280;8520;50.102;20.010;2023-02-15T05:55:22;99797.84;;;7.88;69.09
16806;BME280;8520;50.102;20.010;2023-02-15T05:57:50;99800.53;;;7.91;69.27
16806;BME280;8520;50.102;20.010;2023-02-15T06:00:20;99800.16;;;7.89;69.19
16806;BME280;8520;50.102;20.010;2023-02-15T06:02:48;99797.34;;;7.93;69.28
16806;BME280;8520;50.102;20.010;2023-02-15T06:05:16;99797.31;;;7.96;68.97
16806;BME280;8520;50.102;20.010;2023-02-15T06:07:44;99793.72;;;7.99;69.14
16806;BME280;8520;50.102;20.010;2023-02-15T06:10:13;99793.00;;;7.72;69.24
16806;BME280;8520;50.102;20.010;2023-02-15T06:12:41;99789.25;;;7.62;70.01
16806;BME280;8520;50.102;20.010;2023-02-15T06:15:09;99795.84;;;7.65;70.06
16806;BME280;8520;50.102;20.010;2023-02-15T06:17:40;99796.16;;;7.70;69.66
16806;BME280;8520;50.102;20.010;2023-02-15T06:20:09;99801.84;;;7.60;70.00
16806;BME280;8520;50.102;20.010;2023-02-15T06:22:37;99799.03;;;7.63;69.98
16806;BME280;8520;50.102;20.010;2023-02-15T06:25:06;99796.09;;;7.74;69.61
16806;BME280;8520;50.102;20.010;2023-02-15T06:27:36;99799.97;;;7.77;69.47
16806;BME280;8520;50.102;20.010;2023-02-15T06:30:06;99796.88;;;7.51;69.90
16806;BME280;8520;50.102;20.010;2023-02-15T06:32:34;99797.06;;;7.64;69.89
16806;BME280;8520;50.102;20.010;2023-02-15T06:35:04;99801.56;;;7.78;69.30
16806;BME280;8520;50.102;20.010;2023-02-15T06:37:33;99798.31;;;7.83;69.46
16806;BME280;8520;50.102;20.010;2023-02-15T06:40:01;99800.25;;;7.59;70.28
16806;BME280;8520;50.102;20.010;2023-02-15T06:42:30;99800.69;;;7.81;69.58
16806;BME280;8520;50.102;20.010;2023-02-15T06:44:58;99803.38;;;7.84;69.10
16806;BME280;8520;50.102;20.010;2023-02-15T06:47:27;99801.66;;;7.70;69.32
16806;BME280;8520;50.102;20.010;2023-02-15T06:49:55;99801.34;;;7.65;69.59
16806;BME280;8520;50.102;20.010;2023-02-15T06:52:25;99802.31;;;7.78;69.67
16806;BME280;8520;50.102;20.010;2023-02-15T06:54:55;99803.91;;;7.76;69.31
16806;BME280;8520;50.102;20.010;2023-02-15T06:57:23;99803.03;;;7.82;69.42
16806;BME280;8520;50.102;20.010;2023-02-15T06:59:51;99802.88;;;7.43;70.61
16806;BME280;8520;50.102;20.010;2023-02-15T07:02:19;99803.13;;;7.75;69.86
16806;BME280;8520;50.102;20.010;2023-02-15T07:04:47;99798.81;;;7.78;69.68
16806;BME280;8520;50.102;20.010;2023-02-15T07:07:16;99795.84;;;7.65;69.43
16806;BME280;8520;50.102;20.010;2023-02-15T07:09:45;99797.53;;;7.82;69.50
16806;BME280;8520;50.102;20.010;2023-02-15T07:12:13;99794.78;;;7.82;69.21
16806;BME280;8520;50.102;20.010;2023-02-15T07:14:59;99789.06;;;7.96;69.29
16806;BME280;8520;50.102;20.010;2023-02-15T07:17:27;99789.00;;;7.77;69.36
16806;BME280;8520;50.102;20.010;2023-02-15T07:20:05;99791.88;;;7.93;69.34
16806;BME280;8520;50.102;20.010;2023-02-15T07:22:35;99780.56;;;8.11;69.18
16806;BME280;8520;50.102;20.010;2023-02-15T07:25:07;99794.19;;;7.94;68.76
16806;BME280;8520;50.102;20.010;2023-02-15T07:27:36;99789.44;;;7.98;68.94
16806;BME280;8520;50.102;20.010;2023-02-15T07:30:06;99785.25;;;8.14;68.45
16806;BME280;8520;50.102;20.010;2023-02-15T07:32:34;99777.31;;;7.96;68.85
16806;BME280;8520;50.102;20.010;2023-02-15T07:35:03;99785.41;;;8.03;68.57
16806;BME280;8520;50.102;20.010;2023-02-15T07:37:31;99779.19;;;8.22;68.29
16806;BME280;8520;50.102;20.010;2023-02-15T07:39:59;99784.88;;;8.32;68.12
16806;BME280;8520;50.102;20.010;2023-02-15T07:42:30;99779.25;;;8.19;68.24
16806;BME280;8520;50.102;20.010;2023-02-15T07:44:58;99776.41;;;8.03;68.82
16806;BME280;8520;50.102;20.010;2023-02-15T07:47:26;99784.75;;;8.19;68.14
16806;BME280;8520;50.102;20.010;2023-02-15T07:49:54;99781.44;;;8.27;67.93
16806;BME280;8520;50.102;20.010;2023-02-15T07:52:22;99778.25;;;8.09;68.30
16806;BME280;8520;50.102;20.010;2023-02-15T07:54:50;99781.44;;;8.08;68.02
16806;BME280;8520;50.102;20.010;2023-02-15T07:57:18;99780.94;;;8.13;68.15
16806;BME280;8520;50.102;20.010;2023-02-15T07:59:48;99779.31;;;8.15;67.67
16806;BME280;8520;50.102;20.010;2023-02-15T08:02:16;99783.66;;;8.13;68.27
16806;BME280;8520;50.102;20.010;2023-02-15T08:04:44;99776.34;;;8.06;68.70
16806;BME280;8520;50.102;20.010;2023-02-15T08:07:12;99775.72;;;8.42;67.71
16806;BME280;8520;50.102;20.010;2023-02-15T08:09:40;99773.22;;;8.27;67.74
16806;BME280;8520;50.102;20.010;2023-02-15T08:12:08;99766.56;;;8.48;67.46
16806;BME280;8520;50.102;20.010;2023-02-15T08:14:36;99772.78;;;8.29;67.07
16806;BME280;8520;50.102;20.010;2023-02-15T08:17:06;99770.44;;;8.51;67.25
16806;BME280;8520;50.102;20.010;2023-02-15T08:19:34;99764.88;;;8.54;67.40
16806;BME280;8520;50.102;20.010;2023-02-15T08:22:04;99778.19;;;8.36;67.22
16806;BME280;8520;50.102;20.010;2023-02-15T08:24:34;99765.16;;;8.60;67.16
16806;BME280;8520;50.102;20.010;2023-02-15T08:27:04;99759.16;;;8.65;66.43
16806;BME280;8520;50.102;20.010;2023-02-15T08:29:33;99755.59;;;8.84;66.37
16806;BME280;8520;50.102;20.010;2023-02-15T08:32:04;99761.00;;;8.72;66.19
16806;BME280;8520;50.102;20.010;2023-02-15T08:34:36;99754.69;;;8.91;65.86
16806;BME280;8520;50.102;20.010;2023-02-15T08:37:05;99756.13;;;8.79;65.64
16806;BME280;8520;50.102;20.010;2023-02-15T08:39:33;99753.00;;;8.77;65.99
16806;BME280;8520;50.102;20.010;2023-02-15T08:42:02;99754.16;;;8.60;66.48
16806;BME280;8520;50.102;20.010;2023-02-15T08:44:30;99751.31;;;8.83;66.53
16806;BME280;8520;50.102;20.010;2023-02-15T08:46:58;99751.06;;;8.78;66.77
16806;BME280;8520;50.102;20.010;2023-02-15T08:49:30;99742.59;;;9.05;65.74
16806;BME280;8520;50.102;20.010;2023-02-15T08:52:02;99741.53;;;8.82;65.63
16806;BME280;8520;50.102;20.010;2023-02-15T08:54:30;99749.84;;;9.15;65.27
16806;BME280;8520;50.102;20.010;2023-02-15T08:56:58;99746.50;;;9.24;65.63
16806;BME280;8520;50.102;20.010;2023-02-15T08:59:26;99749.75;;;9.19;64.78
16806;BME280;8520;50.102;20.010;2023-02-15T09:01:55;99743.50;;;9.34;64.77
16806;BME280;8520;50.102;20.010;2023-02-15T09:04:23;99746.69;;;9.33;64.53
16806;BME280;8520;50.102;20.010;2023-02-15T09:06:51;99744.63;;;9.37;64.35
16806;BME280;8520;50.102;20.010;2023-02-15T09:09:21;99746.34;;;8.95;65.32
16806;BME280;8520;50.102;20.010;2023-02-15T09:11:51;99746.78;;;8.93;65.34
16806;BME280;8520;50.102;20.010;2023-02-15T09:14:25;99747.06;;;8.99;65.40
16806;BME280;8520;50.102;20.010;2023-02-15T09:16:53;99741.59;;;9.15;65.15
16806;BME280;8520;50.102;20.010;2023-02-15T09:19:22;99730.69;;;9.44;64.44
16806;BME280;8520;50.102;20.010;2023-02-15T09:21:50;99737.31;;;9.63;64.17
16806;BME280;8520;50.102;20.010;2023-02-15T09:24:21;99728.94;;;9.66;63.68
16806;BME280;8520;50.102;20.010;2023-02-15T09:26:49;99732.81;;;9.69;62.97
16806;BME280;8520;50.102;20.010;2023-02-15T09:29:18;99739.19;;;9.50;63.37
16806;BME280;8520;50.102;20.010;2023-02-15T09:31:48;99738.16;;;9.60;63.65
16806;BME280;8520;50.102;20.010;2023-02-15T09:34:20;99723.94;;;9.78;63.01
16806;BME280;8520;50.102;20.010;2023-02-15T09:36:49;99727.06;;;9.63;63.02
16806;BME280;8520;50.102;20.010;2023-02-15T09:39:19;99724.91;;;9.71;63.15
16806;BME280;8520;50.102;20.010;2023-02-15T09:45:09;99720.59;;;10.15;62.91
16806;BME280;8520;50.102;20.010;2023-02-15T09:47:55;99717.47;;;10.01;62.35
16806;BME280;8520;50.102;20.010;2023-02-15T09:50:34;99714.69;;;10.01;62.57
16806;BME280;8520;50.102;20.010;2023-02-15T09:53:27;99720.50;;;9.90;63.13
16806;BME280;8520;50.102;20.010;2023-02-15T09:56:04;99719.59;;;9.48;64.39
16806;BME280;8520;50.102;20.010;2023-02-15T09:58:45;99709.16;;;9.88;63.84
16806;BME280;8520;50.102;20.010;2023-02-15T10:01:20;99697.13;;;9.65;63.81
16806;BME280;8520;50.102;20.010;2023-02-15T10:04:02;99695.78;;;9.86;64.03
16806;BME280;8520;50.102;20.010;2023-02-15T10:06:38;99697.91;;;9.50;64.89
16806;BME280;8520;50.102;20.010;2023-02-15T10:09:20;99694.22;;;9.40;65.72
16806;BME280;8520;50.102;20.010;2023-02-15T10:12:24;99683.09;;;9.76;64.60
16806;BME280;8520;50.102;20.010;2023-02-15T10:15:11;99685.84;;;10.05;63.95
16806;BME280;8520;50.102;20.010;2023-02-15T10:17:52;99682.16;;;9.66;64.64
16806;BME280;8520;50.102;20.010;2023-02-15T10:20:28;99684.31;;;9.75;64.30
16806;BME280;8520;50.102;20.010;2023-02-15T10:23:22;99670.78;;;10.10;64.16
16806;BME280;8520;50.102;20.010;2023-02-15T10:25:59;99674.50;;;10.03;63.86
16806;BME280;8520;50.102;20.010;2023-02-15T10:28:41;99663.59;;;10.00;63.80
16806;BME280;8520;50.102;20.010;2023-02-15T10:31:21;99656.28;;;9.93;64.25
16806;BME280;8520;50.102;20.010;2023-02-15T10:34:11;99667.47;;;10.15;63.65
16806;BME280;8520;50.102;20.010;2023-02-15T10:39:42;99659.63;;;10.01;64.14
16806;BME280;8520;50.102;20.010;2023-02-15T10:42:20;99658.38;;;10.18;63.93
16806;BME280;8520;50.102;20.010;2023-02-15T10:45:04;99657.69;;;10.14;64.20
16806;BME280;8520;50.102;20.010;2023-02-15T10:48:01;99654.03;;;10.46;63.28
16806;BME280;8520;50.102;20.010;2023-02-15T10:50:50;99657.38;;;10.53;63.30
16806;BME280;8520;50.102;20.010;2023-02-15T10:53:45;99651.59;;;10.48;63.14
16806;BME280;8520;50.102;20.010;2023-02-15T10:56:20;99647.72;;;10.33;63.68
16806;BME280;8520;50.102;20.010;2023-02-15T10:59:05;99642.22;;;10.33;63.87
16806;BME280;8520;50.102;20.010;2023-02-15T11:01:40;99642.16;;;10.20;64.66
16806;BME280;8520;50.102;20.010;2023-02-15T11:04:36;99632.84;;;10.30;64.23
16806;BME280;8520;50.102;20.010;2023-02-15T11:07:15;99629.03;;;10.53;63.64
16806;BME280;8520;50.102;20.010;2023-02-15T11:09:47;99622.75;;;10.65;63.45
16806;BME280;8520;50.102;20.010;2023-02-15T11:12:20;99611.38;;;10.76;63.88
16806;BME280;8520;50.102;20.010;2023-02-15T11:14:52;99612.59;;;10.62;63.88
16806;BME280;8520;50.102;20.010;2023-02-15T11:17:26;99615.88;;;10.95;62.87
16806;BME280;8520;50.102;20.010;2023-02-15T11:20:05;99613.66;;;11.03;63.19
16806;BME280;8520;50.102;20.010;2023-02-15T11:22:36;99615.34;;;10.75;64.07
16806;BME280;8520;50.102;20.010;2023-02-15T11:25:16;99610.81;;;10.68;64.50
16806;BME280;8520;50.102;20.010;2023-02-15T11:27:47;99610.94;;;10.77;63.99
16806;BME280;8520;50.102;20.010;2023-02-15T11:30:19;99602.88;;;10.96;63.57
16806;BME280;8520;50.102;20.010;2023-02-15T11:32:49;99595.69;;;11.11;62.96
16806;BME280;8520;50.102;20.010;2023-02-15T11:35:26;99593.53;;;11.28;62.47
16806;BME280;8520;50.102;20.010;2023-02-15T11:38:01;99593.72;;;11.33;62.22
16806;BME280;8520;50.102;20.010;2023-02-15T11:40:34;99587.16;;;11.18;63.04
16806;BME280;8520;50.102;20.010;2023-02-15T11:43:06;99582.81;;;11.30;63.03
16806;BME280;8520;50.102;20.010;2023-02-15T11:45:41;99580.88;;;11.52;62.37
16806;BME280;8520;50.102;20.010;2023-02-15T11:48:13;99575.50;;;11.71;61.96
16806;BME280;8520;50.102;20.010;2023-02-15T11:50:46;99581.03;;;11.71;62.35
16806;BME280;8520;50.102;20.010;2023-02-15T11:53:16;99574.13;;;11.75;61.98
16806;BME280;8520;50.102;20.010;2023-02-15T11:55:47;99575.38;;;11.39;62.14
16806;BME280;8520;50.102;20.010;2023-02-15T11:58:27;99569.84;;;11.52;62.49
16806;BME280;8520;50.102;20.010;2023-02-15T12:01:02;99575.44;;;11.61;61.62
16806;BME280;8520;50.102;20.010;2023-02-15T12:03:43;99569.53;;;11.72;61.75
16806;BME280;8520;50.102;20.010;2023-02-15T12:06:20;99563.59;;;11.61;62.02
16806;BME280;8520;50.102;20.010;2023-02-15T12:08:56;99560.06;;;12.04;61.33
16806;BME280;8520;50.102;20.010;2023-02-15T12:11:33;99552.66;;;12.23;60.80
16806;BME280;8520;50.102;20.010;2023-02-15T12:14:03;99538.66;;;12.17;60.25
16806;BME280;8520;50.102;20.010;2023-02-15T12:16:40;99538.97;;;12.19;60.44
16806;BME280;8520;50.102;20.010;2023-02-15T12:19:31;99526.44;;;12.86;59.07
16806;BME280;8520;50.102;20.010;2023-02-15T12:22:03;99526.50;;;13.59;57.75
16806;BME280;8520;50.102;20.010;2023-02-15T12:24:37;99521.03;;;14.35;56.21
16806;BME280;8520;50.102;20.010;2023-02-15T12:27:14;99520.91;;;15.34;53.29
16806;BME280;8520;50.102;20.010;2023-02-15T12:29:47;99523.75;;;16.37;51.67
16806;BME280;8520;50.102;20.010;2023-02-15T12:32:19;99516.09;;;17.49;49.49
16806;BME280;8520;50.102;20.010;2023-02-15T12:34:50;99522.59;;;17.66;47.92
16806;BME280;8520;50.102;20.010;2023-02-15T12:37:23;99514.44;;;18.52;46.68
16806;BME280;8520;50.102;20.010;2023-02-15T12:39:55;99510.13;;;19.58;45.68
16806;BME280;8520;50.102;20.010;2023-02-15T12:42:24;99508.13;;;19.87;44.83
16806;BME280;8520;50.102;20.010;2023-02-15T12:44:55;99500.22;;;20.19;44.03
16806;BME280;8520;50.102;20.010;2023-02-15T12:47:24;99511.56;;;20.83;42.37
16806;BME280;8520;50.102;20.010;2023-02-15T12:50:14;99515.41;;;20.85;42.29
16806;BME280;8520;50.102;20.010;2023-02-15T12:52:48;99505.81;;;20.53;42.39
16806;BME280;8520;50.102;20.010;2023-02-15T12:55:24;99509.63;;;19.00;44.11
16806;BME280;8520;50.102;20.010;2023-02-15T12:58:08;99505.50;;;19.50;43.99
16806;BME280;8520;50.102;20.010;2023-02-15T13:00:36;99510.34;;;18.47;44.80
16806;BME280;8520;50.102;20.010;2023-02-15T13:03:16;99506.13;;;18.26;46.52
16806;BME280;8520;50.102;20.010;2023-02-15T13:05:46;99493.50;;;18.67;46.00
16806;BME280;8520;50.102;20.010;2023-02-15T13:08:19;99492.53;;;18.39;45.35
16806;BME280;8520;50.102;20.010;2023-02-15T13:10:54;99491.41;;;18.25;46.49
16806;BME280;8520;50.102;20.010;2023-02-15T13:13:25;99484.25;;;18.18;46.29
16806;BME280;8520;50.102;20.010;2023-02-15T13:15:56;99488.59;;;18.19;46.67
16806;BME280;8520;50.102;20.010;2023-02-15T13:18:30;99484.28;;;17.61;47.53
16806;BME280;8520;50.102;20.010;2023-02-15T13:21:06;99473.53;;;17.74;47.44
16806;BME280;8520;50.102;20.010;2023-02-15T13:23:42;99475.94;;;17.87;47.54
16806;BME280;8520;50.102;20.010;2023-02-15T13:26:15;99485.41;;;17.23;48.08
16806;BME280;8520;50.102;20.010;2023-02-15T13:28:46;99480.25;;;17.16;48.53
16806;BME280;8520;50.102;20.010;2023-02-15T13:31:17;99477.53;;;17.21;48.49
16806;BME280;8520;50.102;20.010;2023-02-15T13:33:49;99477.19;;;17.14;48.69
16806;BME280;8520;50.102;20.010;2023-02-15T13:36:24;99474.16;;;17.12;49.01
16806;BME280;8520;50.102;20.010;2023-02-15T13:39:03;99471.91;;;17.16;48.51
16806;BME280;8520;50.102;20.010;2023-02-15T13:41:46;99471.13;;;17.15;48.73
16806;BME280;8520;50.102;20.010;2023-02-15T13:44:25;99461.34;;;16.99;48.93